sensor_id;sensor_type;location;lat;lon;timestamp;P1;durP1;ratioP1;P2;durP2;ratioP2
9737;SDS011;4908;47.446;13.900;2023-09-07T00:01:32;2.83;;;2.73;;
9737;SDS011;4908;47.446;13.900;2023-09-07T00:03:59;2.90;;;2.80;;
9737;SDS011;4908;47.446;13.900;2023-09-07T00:06:28;3.17;;;2.97;;
9737;SDS011;4908;47.446;13.900;2023-09-07T00:08:55;3.23;;;2.97;;
9737;SDS011;4908;47.446;13.900;2023-09-07T00:11:22;3.37;;;3.17;;
9737;SDS011;4908;47.446;13.900;2023-09-07T00:13:50;3.30;;;3.10;;
9737;SDS011;4908;47.446;13.900;2023-09-07T00:16:17;3.10;;;2.90;;
9737;SDS011;4908;47.446;13.900;2023-09-07T00:18:46;3.63;;;3.30;;
9737;SDS011;4908;47.446;13.900;2023-09-07T00:21:14;2.90;;;2.80;;
9737;SDS011;4908;47.446;13.900;2023-09-07T00:23:41;3.87;;;3.63;;
9737;SDS011;4908;47.446;13.900;2023-09-07T00:26:08;3.00;;;2.80;;
9737;SDS011;4908;47.446;13.900;2023-09-07T00:28:37;3.00;;;2.90;;
9737;SDS011;4908;47.446;13.900;2023-09-07T00:31:05;3.10;;;2.90;;
9737;SDS011;4908;47.446;13.900;2023-09-07T00:33:32;3.20;;;3.00;;
9737;SDS011;4908;47.446;13.900;2023-09-07T00:36:02;3.13;;;2.90;;
9737;SDS011;4908;47.446;13.900;2023-09-07T00:38:30;3.40;;;3.10;;
9737;SDS011;4908;47.446;13.900;2023-09-07T00:40:57;3.40;;;3.03;;
9737;SDS011;4908;47.446;13.900;2023-09-07T00:43:24;3.20;;;3.00;;
9737;SDS011;4908;47.446;13.900;2023-09-07T00:45:51;5.07;;;3.60;;
9737;SDS011;4908;47.446;13.900;2023-09-07T00:48:19;3.40;;;3.13;;
9737;SDS011;4908;47.446;13.900;2023-09-07T00:50:46;3.40;;;3.10;;
9737;SDS011;4908;47.446;13.900;2023-09-07T00:53:15;6.40;;;3.00;;
9737;SDS011;4908;47.446;13.900;2023-09-07T00:55:44;3.47;;;3.27;;
9737;SDS011;4908;47.446;13.900;2023-09-07T00:58:11;2.70;;;2.60;;
9737;SDS011;4908;47.446;13.900;2023-09-07T01:00:38;3.90;;;3.17;;
9737;SDS011;4908;47.446;13.900;2023-09-07T01:03:06;3.13;;;2.93;;
9737;SDS011;4908;47.446;13.900;2023-09-07T01:05:43;2.80;;;2.60;;
9737;SDS011;4908;47.446;13.900;2023-09-07T01:08:31;3.50;;;3.20;;
9737;SDS011;4908;47.446;13.900;2023-09-07T01:11:12;2.70;;;2.60;;
9737;SDS011;4908;47.446;13.900;2023-09-07T01:13:40;2.83;;;2.73;;
9737;SDS011;4908;47.446;13.900;2023-09-07T01:16:07;2.90;;;2.80;;
9737;SDS011;4908;47.446;13.900;2023-09-07T01:18:35;2.97;;;2.87;;
9737;SDS011;4908;47.446;13.900;2023-09-07T01:21:04;2.80;;;2.70;;
9737;SDS011;4908;47.446;13.900;2023-09-07T01:23:35;3.40;;;3.17;;
9737;SDS011;4908;47.446;13.900;2023-09-07T01:26:05;3.10;;;2.90;;
9737;SDS011;4908;47.446;13.900;2023-09-07T01:28:33;3.47;;;3.17;;
9737;SDS011;4908;47.446;13.900;2023-09-07T01:31:02;3.70;;;2.93;;
9737;SDS011;4908;47.446;13.900;2023-09-07T01:33:29;2.90;;;2.80;;
9737;SDS011;4908;47.446;13.900;2023-09-07T01:35:56;3.13;;;2.90;;
9737;SDS011;4908;47.446;13.900;2023-09-07T01:38:24;3.03;;;2.83;;
9737;SDS011;4908;47.446;13.900;2023-09-07T01:40:52;3.43;;;3.23;;
9737;SDS011;4908;47.446;13.900;2023-09-07T01:43:19;2.57;;;2.47;;
9737;SDS011;4908;47.446;13.900;2023-09-07T01:45:47;3.13;;;2.93;;
9737;SDS011;4908;47.446;13.900;2023-09-07T01:48:14;3.03;;;2.83;;
9737;SDS011;4908;47.446;13.900;2023-09-07T01:50:41;3.23;;;3.03;;
9737;SDS011;4908;47.446;13.900;2023-09-07T01:53:09;3.40;;;3.20;;
9737;SDS011;4908;47.446;13.900;2023-09-07T01:55:36;3.03;;;2.93;;
9737;SDS011;4908;47.446;13.900;2023-09-07T01:58:04;3.43;;;2.87;;
9737;SDS011;4908;47.446;13.900;2023-09-07T02:00:35;3.10;;;3.00;;
9737;SDS011;4908;47.446;13.900;2023-09-07T02:03:03;3.23;;;3.03;;
9737;SDS011;4908;47.446;13.900;2023-09-07T02:05:30;3.50;;;3.30;;
9737;SDS011;4908;47.446;13.900;2023-09-07T02:07:58;3.10;;;3.00;;
9737;SDS011;4908;47.446;13.900;2023-09-07T02:10:25;3.17;;;3.07;;
9737;SDS011;4908;47.446;13.900;2023-09-07T02:12:52;3.30;;;3.10;;
9737;SDS011;4908;47.446;13.900;2023-09-07T02:15:23;3.57;;;3.37;;
9737;SDS011;4908;47.446;13.900;2023-09-07T02:17:50;3.20;;;3.10;;
9737;SDS011;4908;47.446;13.900;2023-09-07T02:20:18;3.60;;;3.40;;
9737;SDS011;4908;47.446;13.900;2023-09-07T02:22:45;3.67;;;3.47;;
9737;SDS011;4908;47.446;13.900;2023-09-07T02:25:12;3.30;;;3.17;;
9737;SDS011;4908;47.446;13.900;2023-09-07T02:27:40;3.10;;;3.00;;
9737;SDS011;4908;47.446;13.900;2023-09-07T02:30:07;3.07;;;2.97;;
9737;SDS011;4908;47.446;13.900;2023-09-07T02:32:36;3.57;;;3.30;;
9737;SDS011;4908;47.446;13.900;2023-09-07T02:35:04;3.70;;;3.50;;
9737;SDS011;4908;47.446;13.900;2023-09-07T02:37:31;3.40;;;3.20;;
9737;SDS011;4908;47.446;13.900;2023-09-07T02:39:59;3.50;;;3.20;;
9737;SDS011;4908;47.446;13.900;2023-09-07T02:42:26;3.50;;;3.20;;
9737;SDS011;4908;47.446;13.900;2023-09-07T02:44:53;3.70;;;3.40;;
9737;SDS011;4908;47.446;13.900;2023-09-07T02:47:20;3.33;;;3.13;;
9737;SDS011;4908;47.446;13.900;2023-09-07T02:49:48;7.33;;;3.20;;
9737;SDS011;4908;47.446;13.900;2023-09-07T02:52:16;3.20;;;3.00;;
9737;SDS011;4908;47.446;13.900;2023-09-07T02:54:43;3.70;;;3.30;;
9737;SDS011;4908;47.446;13.900;2023-09-07T02:57:10;3.40;;;3.20;;
9737;SDS011;4908;47.446;13.900;2023-09-07T02:59:37;3.20;;;3.00;;
9737;SDS011;4908;47.446;13.900;2023-09-07T03:02:04;3.90;;;3.53;;
9737;SDS011;4908;47.446;13.900;2023-09-07T03:04:32;3.20;;;3.00;;
9737;SDS011;4908;47.446;13.900;2023-09-07T03:07:01;3.63;;;3.43;;
9737;SDS011;4908;47.446;13.900;2023-09-07T03:09:28;3.33;;;2.97;;
9737;SDS011;4908;47.446;13.900;2023-09-07T03:11:56;3.53;;;3.30;;
9737;SDS011;4908;47.446;13.900;2023-09-07T03:14:23;3.80;;;3.40;;
9737;SDS011;4908;47.446;13.900;2023-09-07T03:16:51;4.27;;;3.83;;
9737;SDS011;4908;47.446;13.900;2023-09-07T03:19:19;3.30;;;3.10;;
9737;SDS011;4908;47.446;13.900;2023-09-07T03:21:46;3.30;;;3.10;;
9737;SDS011;4908;47.446;13.900;2023-09-07T03:24:15;3.70;;;3.40;;
9737;SDS011;4908;47.446;13.900;2023-09-07T03:26:42;3.33;;;3.13;;
9737;SDS011;4908;47.446;13.900;2023-09-07T03:29:10;3.43;;;3.23;;
9737;SDS011;4908;47.446;13.900;2023-09-07T03:31:37;3.60;;;3.40;;
9737;SDS011;4908;47.446;13.900;2023-09-07T03:34:04;3.30;;;3.00;;
9737;SDS011;4908;47.446;13.900;2023-09-07T03:36:32;3.87;;;3.57;;
9737;SDS011;4908;47.446;13.900;2023-09-07T03:38:59;3.30;;;3.10;;
9737;SDS011;4908;47.446;13.900;2023-09-07T03:41:27;3.90;;;3.60;;
9737;SDS011;4908;47.446;13.900;2023-09-07T03:43:56;3.50;;;3.30;;
9737;SDS011;4908;47.446;13.900;2023-09-07T03:46:24;3.37;;;3.17;;
9737;SDS011;4908;47.446;13.900;2023-09-07T03:48:51;3.73;;;3.53;;
9737;SDS011;4908;47.446;13.900;2023-09-07T03:51:18;9.80;;;4.27;;
9737;SDS011;4908;47.446;13.900;2023-09-07T03:53:45;3.83;;;3.53;;
9737;SDS011;4908;47.446;13.900;2023-09-07T03:56:12;7.60;;;3.80;;
9737;SDS011;4908;47.446;13.900;2023-09-07T03:58:41;3.67;;;3.37;;
9737;SDS011;4908;47.446;13.900;2023-09-07T04:01:08;3.80;;;3.50;;
9737;SDS011;4908;47.446;13.900;2023-09-07T04:03:35;3.90;;;3.60;;
9737;SDS011;4908;47.446;13.900;2023-09-07T04:06:03;3.87;;;3.50;;
9737;SDS011;4908;47.446;13.900;2023-09-07T04:08:30;3.67;;;3.37;;
9737;SDS011;4908;47.446;13.900;2023-09-07T04:10:57;4.20;;;3.90;;
9737;SDS011;4908;47.446;13.900;2023-09-07T04:13:25;4.10;;;3.80;;
9737;SDS011;4908;47.446;13.900;2023-09-07T04:15:53;3.27;;;3.17;;
9737;SDS011;4908;47.446;13.900;2023-09-07T04:18:20;3.60;;;3.40;;
9737;SDS011;4908;47.446;13.900;2023-09-07T04:20:47;3.77;;;3.47;;
9737;SDS011;4908;47.446;13.900;2023-09-07T04:23:15;4.30;;;3.50;;
9737;SDS011;4908;47.446;13.900;2023-09-07T04:25:42;3.27;;;3.07;;
9737;SDS011;4908;47.446;13.900;2023-09-07T04:28:09;3.40;;;3.17;;
9737;SDS011;4908;47.446;13.900;2023-09-07T04:30:37;4.50;;;3.63;;
9737;SDS011;4908;47.446;13.900;2023-09-07T04:33:06;3.60;;;3.37;;
9737;SDS011;4908;47.446;13.900;2023-09-07T04:35:33;4.47;;;4.03;;
9737;SDS011;4908;47.446;13.900;2023-09-07T04:38:00;5.57;;;3.70;;
9737;SDS011;4908;47.446;13.900;2023-09-07T04:40:27;3.60;;;3.27;;
9737;SDS011;4908;47.446;13.900;2023-09-07T04:42:54;5.60;;;3.67;;
9737;SDS011;4908;47.446;13.900;2023-09-07T04:45:21;3.77;;;3.10;;
9737;SDS011;4908;47.446;13.900;2023-09-07T04:47:49;4.10;;;3.80;;
9737;SDS011;4908;47.446;13.900;2023-09-07T04:50:18;5.07;;;3.90;;
9737;SDS011;4908;47.446;13.900;2023-09-07T04:52:45;6.10;;;3.70;;
9737;SDS011;4908;47.446;13.900;2023-09-07T04:55:12;4.00;;;3.57;;
9737;SDS011;4908;47.446;13.900;2023-09-07T04:57:40;4.30;;;3.87;;
9737;SDS011;4908;47.446;13.900;2023-09-07T05:00:07;7.83;;;4.20;;
9737;SDS011;4908;47.446;13.900;2023-09-07T05:02:35;10.03;;;4.20;;
9737;SDS011;4908;47.446;13.900;2023-09-07T05:05:07;4.53;;;3.90;;
9737;SDS011;4908;47.446;13.900;2023-09-07T05:07:36;5.07;;;4.03;;
9737;SDS011;4908;47.446;13.900;2023-09-07T05:10:03;4.43;;;4.03;;
9737;SDS011;4908;47.446;13.900;2023-09-07T05:12:32;4.40;;;4.10;;
9737;SDS011;4908;47.446;13.900;2023-09-07T05:14:59;4.87;;;3.97;;
9737;SDS011;4908;47.446;13.900;2023-09-07T05:17:26;4.50;;;3.77;;
9737;SDS011;4908;47.446;13.900;2023-09-07T05:19:53;4.37;;;3.57;;
9737;SDS011;4908;47.446;13.900;2023-09-07T05:22:20;3.80;;;3.50;;
9737;SDS011;4908;47.446;13.900;2023-09-07T05:24:49;5.83;;;4.17;;
9737;SDS011;4908;47.446;13.900;2023-09-07T05:27:16;3.93;;;3.73;;
9737;SDS011;4908;47.446;13.900;2023-09-07T05:29:43;8.47;;;4.00;;
9737;SDS011;4908;47.446;13.900;2023-09-07T05:32:10;15.17;;;5.00;;
9737;SDS011;4908;47.446;13.900;2023-09-07T05:34:38;13.83;;;5.23;;
9737;SDS011;4908;47.446;13.900;2023-09-07T05:37:05;6.53;;;4.47;;
9737;SDS011;4908;47.446;13.900;2023-09-07T05:39:32;11.60;;;4.83;;
9737;SDS011;4908;47.446;13.900;2023-09-07T05:42:01;3.90;;;3.60;;
9737;SDS011;4908;47.446;13.900;2023-09-07T05:44:28;4.30;;;4.00;;
9737;SDS011;4908;47.446;13.900;2023-09-07T05:46:55;4.70;;;4.30;;
9737;SDS011;4908;47.446;13.900;2023-09-07T05:49:23;4.60;;;4.20;;
9737;SDS011;4908;47.446;13.900;2023-09-07T05:51:50;3.97;;;3.73;;
9737;SDS011;4908;47.446;13.900;2023-09-07T05:54:18;5.00;;;4.53;;
9737;SDS011;4908;47.446;13.900;2023-09-07T05:56:45;4.40;;;4.00;;
9737;SDS011;4908;47.446;13.900;2023-09-07T05:59:13;4.53;;;4.07;;
9737;SDS011;4908;47.446;13.900;2023-09-07T06:01:41;4.70;;;4.13;;
9737;SDS011;4908;47.446;13.900;2023-09-07T06:04:08;4.73;;;4.20;;
9737;SDS011;4908;47.446;13.900;2023-09-07T06:06:35;4.97;;;4.57;;
9737;SDS011;4908;47.446;13.900;2023-09-07T06:09:02;4.53;;;4.20;;
9737;SDS011;4908;47.446;13.900;2023-09-07T06:11:30;4.73;;;4.43;;
9737;SDS011;4908;47.446;13.900;2023-09-07T06:13:57;5.67;;;4.10;;
9737;SDS011;4908;47.446;13.900;2023-09-07T06:16:26;4.53;;;4.23;;
9737;SDS011;4908;47.446;13.900;2023-09-07T06:18:53;6.67;;;4.67;;
9737;SDS011;4908;47.446;13.900;2023-09-07T06:21:20;4.87;;;4.37;;
9737;SDS011;4908;47.446;13.900;2023-09-07T06:23:47;4.17;;;3.87;;
9737;SDS011;4908;47.446;13.900;2023-09-07T06:26:15;5.23;;;4.30;;
9737;SDS011;4908;47.446;13.900;2023-09-07T06:28:43;4.10;;;3.90;;
9737;SDS011;4908;47.446;13.900;2023-09-07T06:31:10;3.67;;;3.47;;
9737;SDS011;4908;47.446;13.900;2023-09-07T06:33:39;3.77;;;3.53;;
9737;SDS011;4908;47.446;13.900;2023-09-07T06:36:06;4.20;;;3.90;;
9737;SDS011;4908;47.446;13.900;2023-09-07T06:38:33;4.30;;;4.00;;
9737;SDS011;4908;47.446;13.900;2023-09-07T06:41:00;3.97;;;3.67;;
9737;SDS011;4908;47.446;13.900;2023-09-07T06:43:27;3.00;;;2.90;;
9737;SDS011;4908;47.446;13.900;2023-09-07T06:46:01;4.53;;;3.43;;
9737;SDS011;4908;47.446;13.900;2023-09-07T06:48:29;3.50;;;3.20;;
9737;SDS011;4908;47.446;13.900;2023-09-07T06:51:02;3.80;;;3.60;;
9737;SDS011;4908;47.446;13.900;2023-09-07T06:53:30;3.80;;;3.50;;
9737;SDS011;4908;47.446;13.900;2023-09-07T06:55:57;7.40;;;3.57;;
9737;SDS011;4908;47.446;13.900;2023-09-07T06:58:24;3.50;;;3.30;;
9737;SDS011;4908;47.446;13.900;2023-09-07T07:00:52;4.27;;;4.03;;
9737;SDS011;4908;47.446;13.900;2023-09-07T07:03:19;3.47;;;3.10;;
9737;SDS011;4908;47.446;13.900;2023-09-07T07:05:46;3.77;;;3.57;;
9737;SDS011;4908;47.446;13.900;2023-09-07T07:08:15;3.60;;;3.40;;
9737;SDS011;4908;47.446;13.900;2023-09-07T07:10:42;3.23;;;3.03;;
9737;SDS011;4908;47.446;13.900;2023-09-07T07:13:09;4.70;;;3.50;;
9737;SDS011;4908;47.446;13.900;2023-09-07T07:15:36;4.00;;;3.57;;
9737;SDS011;4908;47.446;13.900;2023-09-07T07:18:04;4.13;;;3.73;;
9737;SDS011;4908;47.446;13.900;2023-09-07T07:20:33;3.50;;;3.20;;
9737;SDS011;4908;47.446;13.900;2023-09-07T07:23:00;4.13;;;3.70;;
9737;SDS011;4908;47.446;13.900;2023-09-07T07:25:29;5.37;;;3.67;;
9737;SDS011;4908;47.446;13.900;2023-09-07T07:27:58;4.00;;;3.63;;
9737;SDS011;4908;47.446;13.900;2023-09-07T07:30:26;3.20;;;3.00;;
9737;SDS011;4908;47.446;13.900;2023-09-07T07:32:54;4.03;;;3.67;;
9737;SDS011;4908;47.446;13.900;2023-09-07T07:35:21;4.83;;;3.70;;
9737;SDS011;4908;47.446;13.900;2023-09-07T07:37:49;4.03;;;3.60;;
9737;SDS011;4908;47.446;13.900;2023-09-07T07:40:17;5.83;;;3.73;;
9737;SDS011;4908;47.446;13.900;2023-09-07T07:42:46;3.57;;;3.37;;
9737;SDS011;4908;47.446;13.900;2023-09-07T07:45:13;3.53;;;3.33;;
9737;SDS011;4908;47.446;13.900;2023-09-07T07:47:44;3.93;;;3.63;;
9737;SDS011;4908;47.446;13.900;2023-09-07T07:50:12;4.20;;;3.90;;
9737;SDS011;4908;47.446;13.900;2023-09-07T07:52:39;4.10;;;3.73;;
9737;SDS011;4908;47.446;13.900;2023-09-07T07:55:07;3.90;;;3.60;;
9737;SDS011;4908;47.446;13.900;2023-09-07T07:57:35;4.10;;;3.80;;
9737;SDS011;4908;47.446;13.900;2023-09-07T08:00:04;3.57;;;3.37;;
9737;SDS011;4908;47.446;13.900;2023-09-07T08:02:33;6.20;;;4.20;;
9737;SDS011;4908;47.446;13.900;2023-09-07T08:05:00;3.77;;;3.57;;
9737;SDS011;4908;47.446;13.900;2023-09-07T08:07:27;4.53;;;4.03;;
9737;SDS011;4908;47.446;13.900;2023-09-07T08:09:54;4.30;;;4.00;;
9737;SDS011;4908;47.446;13.900;2023-09-07T08:12:21;3.87;;;3.60;;
9737;SDS011;4908;47.446;13.900;2023-09-07T08:14:48;4.07;;;3.87;;
9737;SDS011;4908;47.446;13.900;2023-09-07T08:17:17;4.00;;;3.70;;
9737;SDS011;4908;47.446;13.900;2023-09-07T08:19:45;6.40;;;4.03;;
9737;SDS011;4908;47.446;13.900;2023-09-07T08:22:13;4.17;;;3.67;;
9737;SDS011;4908;47.446;13.900;2023-09-07T08:24:41;4.03;;;3.83;;
9737;SDS011;4908;47.446;13.900;2023-09-07T08:27:09;6.13;;;3.67;;
9737;SDS011;4908;47.446;13.900;2023-09-07T08:29:43;4.60;;;4.20;;
9737;SDS011;4908;47.446;13.900;2023-09-07T08:32:12;4.30;;;3.90;;
9737;SDS011;4908;47.446;13.900;2023-09-07T08:34:40;4.87;;;4.33;;
9737;SDS011;4908;47.446;13.900;2023-09-07T08:37:08;4.73;;;3.83;;
9737;SDS011;4908;47.446;13.900;2023-09-07T08:39:35;4.47;;;4.07;;
9737;SDS011;4908;47.446;13.900;2023-09-07T08:42:04;4.00;;;3.70;;
9737;SDS011;4908;47.446;13.900;2023-09-07T08:44:32;5.60;;;3.90;;
9737;SDS011;4908;47.446;13.900;2023-09-07T08:47:03;5.37;;;3.87;;
9737;SDS011;4908;47.446;13.900;2023-09-07T08:49:32;7.50;;;4.00;;
9737;SDS011;4908;47.446;13.900;2023-09-07T08:52:01;4.10;;;3.70;;
9737;SDS011;4908;47.446;13.900;2023-09-07T08:54:29;4.43;;;4.13;;
9737;SDS011;4908;47.446;13.900;2023-09-07T08:56:58;4.60;;;4.20;;
9737;SDS011;4908;47.446;13.900;2023-09-07T08:59:25;4.40;;;4.00;;
9737;SDS011;4908;47.446;13.900;2023-09-07T09:01:56;3.87;;;3.50;;
9737;SDS011;4908;47.446;13.900;2023-09-07T09:04:23;4.63;;;4.23;;
9737;SDS011;4908;47.446;13.900;2023-09-07T09:06:51;4.13;;;3.83;;
9737;SDS011;4908;47.446;13.900;2023-09-07T09:09:23;4.10;;;3.80;;
9737;SDS011;4908;47.446;13.900;2023-09-07T09:11:51;5.37;;;3.90;;
9737;SDS011;4908;47.446;13.900;2023-09-07T09:14:18;4.10;;;3.90;;
9737;SDS011;4908;47.446;13.900;2023-09-07T09:16:49;4.53;;;4.03;;
9737;SDS011;4908;47.446;13.900;2023-09-07T09:19:17;4.93;;;3.53;;
9737;SDS011;4908;47.446;13.900;2023-09-07T09:21:44;5.63;;;4.10;;
9737;SDS011;4908;47.446;13.900;2023-09-07T09:24:12;3.60;;;3.40;;
9737;SDS011;4908;47.446;13.900;2023-09-07T09:26:42;10.50;;;4.03;;
9737;SDS011;4908;47.446;13.900;2023-09-07T09:29:09;4.40;;;3.57;;
9737;SDS011;4908;47.446;13.900;2023-09-07T09:31:37;5.53;;;3.67;;
9737;SDS011;4908;47.446;13.900;2023-09-07T09:34:04;4.37;;;3.97;;
9737;SDS011;4908;47.446;13.900;2023-09-07T09:36:35;4.80;;;3.97;;
9737;SDS011;4908;47.446;13.900;2023-09-07T09:39:02;4.57;;;4.17;;
9737;SDS011;4908;47.446;13.900;2023-09-07T09:41:31;4.77;;;3.63;;
9737;SDS011;4908;47.446;13.900;2023-09-07T09:44:01;5.90;;;3.77;;
9737;SDS011;4908;47.446;13.900;2023-09-07T09:46:31;5.63;;;3.80;;
9737;SDS011;4908;47.446;13.900;2023-09-07T09:48:59;4.33;;;3.87;;
9737;SDS011;4908;47.446;13.900;2023-09-07T09:51:28;3.50;;;3.30;;
9737;SDS011;4908;47.446;13.900;2023-09-07T09:53:58;4.47;;;3.73;;
9737;SDS011;4908;47.446;13.900;2023-09-07T09:56:27;5.77;;;3.43;;
9737;SDS011;4908;47.446;13.900;2023-09-07T09:58:54;8.63;;;3.73;;
9737;SDS011;4908;47.446;13.900;2023-09-07T10:01:23;4.30;;;3.40;;
9737;SDS011;4908;47.446;13.900;2023-09-07T10:03:51;3.83;;;3.57;;
9737;SDS011;4908;47.446;13.900;2023-09-07T10:06:20;4.27;;;3.37;;
9737;SDS011;4908;47.446;13.900;2023-09-07T10:08:52;3.90;;;3.60;;
9737;SDS011;4908;47.446;13.900;2023-09-07T10:11:31;5.37;;;3.40;;
9737;SDS011;4908;47.446;13.900;2023-09-07T10:13:59;3.77;;;3.53;;
9737;SDS011;4908;47.446;13.900;2023-09-07T10:16:30;3.23;;;3.03;;
9737;SDS011;4908;47.446;13.900;2023-09-07T10:19:13;3.30;;;3.00;;
9737;SDS011;4908;47.446;13.900;2023-09-07T10:21:42;3.60;;;3.20;;
9737;SDS011;4908;47.446;13.900;2023-09-07T10:24:09;22.20;;;4.57;;
9737;SDS011;4908;47.446;13.900;2023-09-07T10:26:37;4.60;;;2.93;;
9737;SDS011;4908;47.446;13.900;2023-09-07T10:29:04;4.70;;;3.10;;
9737;SDS011;4908;47.446;13.900;2023-09-07T10:31:33;3.03;;;2.83;;
9737;SDS011;4908;47.446;13.900;2023-09-07T10:34:09;3.40;;;3.10;;
9737;SDS011;4908;47.446;13.900;2023-09-07T10:36:37;4.30;;;2.70;;
9737;SDS011;4908;47.446;13.900;2023-09-07T10:39:04;3.30;;;3.10;;
9737;SDS011;4908;47.446;13.900;2023-09-07T10:41:40;2.90;;;2.77;;
9737;SDS011;4908;47.446;13.900;2023-09-07T10:44:08;2.77;;;2.57;;
9737;SDS011;4908;47.446;13.900;2023-09-07T10:46:39;3.00;;;2.80;;
9737;SDS011;4908;47.446;13.900;2023-09-07T10:49:07;3.13;;;2.83;;
9737;SDS011;4908;47.446;13.900;2023-09-07T10:51:40;2.93;;;2.70;;
9737;SDS011;4908;47.446;13.900;2023-09-07T10:54:15;3.73;;;3.20;;
9737;SDS011;4908;47.446;13.900;2023-09-07T10:56:43;2.90;;;2.70;;
9737;SDS011;4908;47.446;13.900;2023-09-07T10:59:12;3.03;;;2.53;;
9737;SDS011;4908;47.446;13.900;2023-09-07T11:01:41;3.27;;;2.90;;
9737;SDS011;4908;47.446;13.900;2023-09-07T11:04:10;3.10;;;2.90;;
9737;SDS011;4908;47.446;13.900;2023-09-07T11:06:38;3.23;;;3.03;;
9737;SDS011;4908;47.446;13.900;2023-09-07T11:09:07;5.67;;;3.07;;
9737;SDS011;4908;47.446;13.900;2023-09-07T11:11:36;5.13;;;2.73;;
9737;SDS011;4908;47.446;13.900;2023-09-07T11:14:03;2.53;;;2.43;;
9737;SDS011;4908;47.446;13.900;2023-09-07T11:16:31;2.90;;;2.50;;
9737;SDS011;4908;47.446;13.900;2023-09-07T11:19:05;2.83;;;2.63;;
9737;SDS011;4908;47.446;13.900;2023-09-07T11:21:34;3.60;;;2.67;;
9737;SDS011;4908;47.446;13.900;2023-09-07T11:24:02;3.03;;;2.50;;
9737;SDS011;4908;47.446;13.900;2023-09-07T11:26:40;2.77;;;2.57;;
9737;SDS011;4908;47.446;13.900;2023-09-07T11:29:08;2.60;;;2.40;;
9737;SDS011;4908;47.446;13.900;2023-09-07T11:31:35;13.43;;;3.40;;
9737;SDS011;4908;47.446;13.900;2023-09-07T11:34:02;8.70;;;3.13;;
9737;SDS011;4908;47.446;13.900;2023-09-07T11:36:31;3.53;;;2.60;;
9737;SDS011;4908;47.446;13.900;2023-09-07T11:38:58;2.67;;;2.57;;
9737;SDS011;4908;47.446;13.900;2023-09-07T11:41:25;3.67;;;2.80;;
9737;SDS011;4908;47.446;13.900;2023-09-07T11:43:52;6.77;;;2.83;;
9737;SDS011;4908;47.446;13.900;2023-09-07T11:46:19;2.73;;;2.50;;
9737;SDS011;4908;47.446;13.900;2023-09-07T11:48:47;2.70;;;2.50;;
9737;SDS011;4908;47.446;13.900;2023-09-07T11:51:14;2.67;;;2.50;;
9737;SDS011;4908;47.446;13.900;2023-09-07T11:53:43;7.97;;;2.90;;
9737;SDS011;4908;47.446;13.900;2023-09-07T11:56:10;2.93;;;2.73;;
9737;SDS011;4908;47.446;13.900;2023-09-07T11:58:37;4.10;;;2.60;;
9737;SDS011;4908;47.446;13.900;2023-09-07T12:01:04;10.63;;;2.97;;
9737;SDS011;4908;47.446;13.900;2023-09-07T12:03:31;11.73;;;3.07;;
9737;SDS011;4908;47.446;13.900;2023-09-07T12:05:59;3.17;;;2.97;;
9737;SDS011;4908;47.446;13.900;2023-09-07T12:08:26;2.40;;;2.30;;
9737;SDS011;4908;47.446;13.900;2023-09-07T12:10:55;2.70;;;2.60;;
9737;SDS011;4908;47.446;13.900;2023-09-07T12:13:22;2.60;;;2.50;;
9737;SDS011;4908;47.446;13.900;2023-09-07T12:15:51;5.77;;;2.97;;
9737;SDS011;4908;47.446;13.900;2023-09-07T12:18:18;21.07;;;3.73;;
9737;SDS011;4908;47.446;13.900;2023-09-07T12:20:45;2.90;;;2.70;;
9737;SDS011;4908;47.446;13.900;2023-09-07T12:23:12;2.87;;;2.40;;
9737;SDS011;4908;47.446;13.900;2023-09-07T12:25:39;3.53;;;2.47;;
9737;SDS011;4908;47.446;13.900;2023-09-07T12:28:08;8.93;;;2.80;;
9737;SDS011;4908;47.446;13.900;2023-09-07T12:30:35;11.63;;;2.60;;
9737;SDS011;4908;47.446;13.900;2023-09-07T12:33:02;8.37;;;2.90;;
9737;SDS011;4908;47.446;13.900;2023-09-07T12:35:30;2.67;;;2.40;;
9737;SDS011;4908;47.446;13.900;2023-09-07T12:37:57;8.83;;;3.10;;
9737;SDS011;4908;47.446;13.900;2023-09-07T12:40:25;4.17;;;2.63;;
9737;SDS011;4908;47.446;13.900;2023-09-07T12:42:52;9.90;;;3.20;;
9737;SDS011;4908;47.446;13.900;2023-09-07T12:45:20;2.90;;;2.50;;
9737;SDS011;4908;47.446;13.900;2023-09-07T12:47:47;2.50;;;2.40;;
9737;SDS011;4908;47.446;13.900;2023-09-07T12:50:15;14.80;;;3.30;;
9737;SDS011;4908;47.446;13.900;2023-09-07T12:52:42;9.25;;;2.85;;
9737;SDS011;4908;47.446;13.900;2023-09-07T12:55:09;15.77;;;3.45;;
9737;SDS011;4908;47.446;13.900;2023-09-07T12:57:36;5.82;;;2.83;;
9737;SDS011;4908;47.446;13.900;2023-09-07T13:00:04;21.50;;;3.58;;
9737;SDS011;4908;47.446;13.900;2023-09-07T13:02:33;3.20;;;2.80;;
9737;SDS011;4908;47.446;13.900;2023-09-07T13:05:01;4.72;;;2.75;;
9737;SDS011;4908;47.446;13.900;2023-09-07T13:07:30;4.45;;;2.90;;
9737;SDS011;4908;47.446;13.900;2023-09-07T13:09:57;3.05;;;2.55;;
9737;SDS011;4908;47.446;13.900;2023-09-07T13:12:27;9.30;;;3.00;;
9737;SDS011;4908;47.446;13.900;2023-09-07T13:14:54;5.07;;;2.70;;
9737;SDS011;4908;47.446;13.900;2023-09-07T13:17:21;3.60;;;2.70;;
9737;SDS011;4908;47.446;13.900;2023-09-07T13:19:50;2.58;;;2.35;;
9737;SDS011;4908;47.446;13.900;2023-09-07T13:22:17;6.70;;;2.78;;
9737;SDS011;4908;47.446;13.900;2023-09-07T13:24:44;5.95;;;2.45;;
9737;SDS011;4908;47.446;13.900;2023-09-07T13:27:11;4.20;;;2.53;;
9737;SDS011;4908;47.446;13.900;2023-09-07T13:29:39;4.50;;;2.90;;
9737;SDS011;4908;47.446;13.900;2023-09-07T13:32:06;6.82;;;2.15;;
9737;SDS011;4908;47.446;13.900;2023-09-07T13:34:33;2.60;;;2.40;;
9737;SDS011;4908;47.446;13.900;2023-09-07T13:37:02;17.45;;;3.28;;
9737;SDS011;4908;47.446;13.900;2023-09-07T13:39:29;3.60;;;2.30;;
9737;SDS011;4908;47.446;13.900;2023-09-07T13:41:56;2.50;;;2.30;;
9737;SDS011;4908;47.446;13.900;2023-09-07T13:44:23;17.70;;;3.13;;
9737;SDS011;4908;47.446;13.900;2023-09-07T13:46:50;10.38;;;2.20;;
9737;SDS011;4908;47.446;13.900;2023-09-07T13:49:19;3.95;;;2.58;;
9737;SDS011;4908;47.446;13.900;2023-09-07T13:51:46;4.80;;;2.55;;
9737;SDS011;4908;47.446;13.900;2023-09-07T13:54:14;7.93;;;2.88;;
9737;SDS011;4908;47.446;13.900;2023-09-07T13:56:42;5.35;;;2.28;;
9737;SDS011;4908;47.446;13.900;2023-09-07T13:59:10;3.25;;;2.33;;
9737;SDS011;4908;47.446;13.900;2023-09-07T14:01:37;13.27;;;2.70;;
9737;SDS011;4908;47.446;13.900;2023-09-07T14:04:04;14.85;;;2.67;;
9737;SDS011;4908;47.446;13.900;2023-09-07T14:06:33;15.82;;;2.85;;
9737;SDS011;4908;47.446;13.900;2023-09-07T14:09:00;2.50;;;2.40;;
9737;SDS011;4908;47.446;13.900;2023-09-07T14:11:28;5.13;;;2.38;;
9737;SDS011;4908;47.446;13.900;2023-09-07T14:13:56;11.98;;;2.90;;
9737;SDS011;4908;47.446;13.900;2023-09-07T14:16:23;5.20;;;2.78;;
9737;SDS011;4908;47.446;13.900;2023-09-07T14:18:50;5.50;;;2.40;;
9737;SDS011;4908;47.446;13.900;2023-09-07T14:21:17;2.22;;;2.00;;
9737;SDS011;4908;47.446;13.900;2023-09-07T14:23:44;2.53;;;2.42;;
9737;SDS011;4908;47.446;13.900;2023-09-07T14:26:12;2.33;;;2.22;;
9737;SDS011;4908;47.446;13.900;2023-09-07T14:28:40;3.05;;;2.80;;
9737;SDS011;4908;47.446;13.900;2023-09-07T14:31:07;5.82;;;2.40;;
9737;SDS011;4908;47.446;13.900;2023-09-07T14:33:35;6.20;;;2.58;;
9737;SDS011;4908;47.446;13.900;2023-09-07T14:36:04;2.70;;;2.47;;
9737;SDS011;4908;47.446;13.900;2023-09-07T14:38:31;41.58;;;4.90;;
9737;SDS011;4908;47.446;13.900;2023-09-07T14:41:00;9.38;;;2.83;;
9737;SDS011;4908;47.446;13.900;2023-09-07T14:43:28;8.30;;;3.00;;
9737;SDS011;4908;47.446;13.900;2023-09-07T14:45:56;20.30;;;3.40;;
9737;SDS011;4908;47.446;13.900;2023-09-07T14:48:23;2.90;;;2.60;;
9737;SDS011;4908;47.446;13.900;2023-09-07T14:50:51;4.28;;;2.45;;
9737;SDS011;4908;47.446;13.900;2023-09-07T14:53:18;3.80;;;2.50;;
9737;SDS011;4908;47.446;13.900;2023-09-07T14:55:45;2.47;;;2.30;;
9737;SDS011;4908;47.446;13.900;2023-09-07T14:58:13;9.80;;;2.80;;
9737;SDS011;4908;47.446;13.900;2023-09-07T15:00:40;4.32;;;2.55;;
9737;SDS011;4908;47.446;13.900;2023-09-07T15:03:08;2.80;;;2.60;;
9737;SDS011;4908;47.446;13.900;2023-09-07T15:05:36;6.68;;;3.08;;